Lineboro, Maryland
Current Conditions -  °F | °C
As of 1:40 PM on Monday 26 Jan 2015 (Local Time) from KDMW Reporting Station
Haze Haze  
Wind Chill: 17°   Ceiling: 1400
Heat Index: 27°   Visibility: 5mi
Dew Point: 25°   Wind: 9mph
Humidity: 93%   Direction: 40°NE
Pressure: 29.73"   Gusts: NA
Location:  39.72°N, 76.84°W
Report Text: KDMW 261840Z AUTO 04008KT 5SM BR OVC014 M03/M04 A2973 RMK AO2
Loading
Personal Weather Stations






























Interactive Weather Map New forecast layout! Learn more

10-Day Weather Forecast

Advertisements
Track Severe Weather on mobile